sensor_id;sensor_type;location;lat;lon;timestamp;P1;durP1;ratioP1;P2;durP2;ratioP2
30010;SDS011;16851;53.564;8.112;2023-07-13T00:00:49;7.18;;;2.40;;
30010;SDS011;16851;53.564;8.112;2023-07-13T00:05:57;9.73;;;2.30;;
30010;SDS011;16851;53.564;8.112;2023-07-13T00:11:00;5.55;;;2.50;;
30010;SDS011;16851;53.564;8.112;2023-07-13T00:16:03;6.82;;;2.42;;
30010;SDS011;16851;53.564;8.112;2023-07-13T00:21:05;6.72;;;2.72;;
30010;SDS011;16851;53.564;8.112;2023-07-13T00:26:09;6.53;;;2.47;;
30010;SDS011;16851;53.564;8.112;2023-07-13T00:31:15;4.38;;;2.10;;
30010;SDS011;16851;53.564;8.112;2023-07-13T00:36:20;6.00;;;2.50;;
30010;SDS011;16851;53.564;8.112;2023-07-13T00:41:24;6.32;;;2.22;;
30010;SDS011;16851;53.564;8.112;2023-07-13T00:46:31;8.68;;;2.10;;
30010;SDS011;16851;53.564;8.112;2023-07-13T00:51:36;6.45;;;2.28;;
30010;SDS011;16851;53.564;8.112;2023-07-13T00:56:48;7.30;;;2.78;;
30010;SDS011;16851;53.564;8.112;2023-07-13T01:01:52;7.88;;;2.63;;
30010;SDS011;16851;53.564;8.112;2023-07-13T01:06:56;9.15;;;2.85;;
30010;SDS011;16851;53.564;8.112;2023-07-13T01:12:02;8.02;;;2.60;;
30010;SDS011;16851;53.564;8.112;2023-07-13T01:17:09;6.53;;;2.50;;
30010;SDS011;16851;53.564;8.112;2023-07-13T01:22:15;7.25;;;2.25;;
30010;SDS011;16851;53.564;8.112;2023-07-13T01:27:22;5.70;;;2.70;;
30010;SDS011;16851;53.564;8.112;2023-07-13T01:32:26;7.63;;;2.47;;
30010;SDS011;16851;53.564;8.112;2023-07-13T01:37:29;6.93;;;2.38;;
30010;SDS011;16851;53.564;8.112;2023-07-13T01:42:34;8.13;;;2.45;;
30010;SDS011;16851;53.564;8.112;2023-07-13T01:47:38;8.32;;;2.63;;
30010;SDS011;16851;53.564;8.112;2023-07-13T01:52:39;10.35;;;2.88;;
30010;SDS011;16851;53.564;8.112;2023-07-13T01:57:44;8.85;;;2.80;;
30010;SDS011;16851;53.564;8.112;2023-07-13T02:02:46;7.32;;;2.80;;
30010;SDS011;16851;53.564;8.112;2023-07-13T02:07:49;8.38;;;3.30;;
30010;SDS011;16851;53.564;8.112;2023-07-13T02:12:50;6.85;;;2.55;;
30010;SDS011;16851;53.564;8.112;2023-07-13T02:17:55;8.27;;;2.45;;
30010;SDS011;16851;53.564;8.112;2023-07-13T02:22:59;8.75;;;3.10;;
30010;SDS011;16851;53.564;8.112;2023-07-13T02:28:02;10.95;;;3.25;;
30010;SDS011;16851;53.564;8.112;2023-07-13T02:33:07;14.48;;;3.15;;
30010;SDS011;16851;53.564;8.112;2023-07-13T02:38:08;9.25;;;2.85;;
30010;SDS011;16851;53.564;8.112;2023-07-13T02:43:10;16.17;;;2.83;;
30010;SDS011;16851;53.564;8.112;2023-07-13T02:48:13;12.02;;;3.03;;
30010;SDS011;16851;53.564;8.112;2023-07-13T02:53:15;11.77;;;3.08;;
30010;SDS011;16851;53.564;8.112;2023-07-13T02:58:17;9.52;;;3.10;;
30010;SDS011;16851;53.564;8.112;2023-07-13T03:03:19;19.83;;;3.28;;
30010;SDS011;16851;53.564;8.112;2023-07-13T03:08:21;13.75;;;3.05;;
30010;SDS011;16851;53.564;8.112;2023-07-13T03:13:25;17.85;;;3.83;;
30010;SDS011;16851;53.564;8.112;2023-07-13T03:18:27;16.13;;;3.72;;
30010;SDS011;16851;53.564;8.112;2023-07-13T03:23:31;13.57;;;3.58;;
30010;SDS011;16851;53.564;8.112;2023-07-13T03:28:34;14.88;;;3.25;;
30010;SDS011;16851;53.564;8.112;2023-07-13T03:33:38;12.80;;;3.30;;
30010;SDS011;16851;53.564;8.112;2023-07-13T03:38:40;13.73;;;3.10;;
30010;SDS011;16851;53.564;8.112;2023-07-13T03:43:42;18.35;;;3.28;;
30010;SDS011;16851;53.564;8.112;2023-07-13T03:48:46;17.65;;;3.30;;
30010;SDS011;16851;53.564;8.112;2023-07-13T03:53:49;10.02;;;3.05;;
30010;SDS011;16851;53.564;8.112;2023-07-13T03:58:57;7.38;;;2.85;;
30010;SDS011;16851;53.564;8.112;2023-07-13T04:03:59;11.68;;;3.00;;
30010;SDS011;16851;53.564;8.112;2023-07-13T04:09:05;13.27;;;3.25;;
30010;SDS011;16851;53.564;8.112;2023-07-13T04:14:07;13.90;;;3.17;;
30010;SDS011;16851;53.564;8.112;2023-07-13T04:19:09;13.88;;;3.50;;
30010;SDS011;16851;53.564;8.112;2023-07-13T04:24:11;14.73;;;3.75;;
30010;SDS011;16851;53.564;8.112;2023-07-13T04:29:13;14.75;;;3.70;;
30010;SDS011;16851;53.564;8.112;2023-07-13T04:34:15;12.88;;;3.13;;
30010;SDS011;16851;53.564;8.112;2023-07-13T04:39:21;13.93;;;3.35;;
30010;SDS011;16851;53.564;8.112;2023-07-13T04:44:23;15.02;;;3.17;;
30010;SDS011;16851;53.564;8.112;2023-07-13T04:49:25;13.95;;;3.17;;
30010;SDS011;16851;53.564;8.112;2023-07-13T04:54:26;16.95;;;3.80;;
30010;SDS011;16851;53.564;8.112;2023-07-13T04:59:33;17.65;;;3.75;;
30010;SDS011;16851;53.564;8.112;2023-07-13T05:04:35;15.55;;;4.20;;
30010;SDS011;16851;53.564;8.112;2023-07-13T05:09:37;10.90;;;3.28;;
30010;SDS011;16851;53.564;8.112;2023-07-13T05:14:41;17.15;;;4.40;;
30010;SDS011;16851;53.564;8.112;2023-07-13T05:19:43;14.00;;;3.40;;
30010;SDS011;16851;53.564;8.112;2023-07-13T05:24:45;14.02;;;3.88;;
30010;SDS011;16851;53.564;8.112;2023-07-13T05:29:50;12.20;;;3.63;;
30010;SDS011;16851;53.564;8.112;2023-07-13T05:34:54;13.23;;;3.83;;
30010;SDS011;16851;53.564;8.112;2023-07-13T05:39:56;17.73;;;4.47;;
30010;SDS011;16851;53.564;8.112;2023-07-13T05:44:58;18.25;;;4.75;;
30010;SDS011;16851;53.564;8.112;2023-07-13T05:49:59;17.45;;;3.90;;
30010;SDS011;16851;53.564;8.112;2023-07-13T05:55:07;13.95;;;3.67;;
30010;SDS011;16851;53.564;8.112;2023-07-13T06:00:12;17.60;;;4.13;;
30010;SDS011;16851;53.564;8.112;2023-07-13T06:05:18;15.98;;;4.05;;
30010;SDS011;16851;53.564;8.112;2023-07-13T06:10:22;20.23;;;4.57;;
30010;SDS011;16851;53.564;8.112;2023-07-13T06:15:23;13.88;;;4.00;;
30010;SDS011;16851;53.564;8.112;2023-07-13T06:20:25;17.05;;;4.30;;
30010;SDS011;16851;53.564;8.112;2023-07-13T06:25:27;18.50;;;4.53;;
30010;SDS011;16851;53.564;8.112;2023-07-13T06:30:34;23.35;;;5.22;;
30010;SDS011;16851;53.564;8.112;2023-07-13T06:35:38;16.55;;;4.10;;
30010;SDS011;16851;53.564;8.112;2023-07-13T06:40:40;21.33;;;4.38;;
30010;SDS011;16851;53.564;8.112;2023-07-13T06:45:46;18.42;;;4.03;;
30010;SDS011;16851;53.564;8.112;2023-07-13T06:50:50;17.55;;;3.75;;
30010;SDS011;16851;53.564;8.112;2023-07-13T06:55:52;16.40;;;4.45;;
30010;SDS011;16851;53.564;8.112;2023-07-13T07:00:54;18.77;;;4.05;;
30010;SDS011;16851;53.564;8.112;2023-07-13T07:06:12;18.75;;;4.18;;
30010;SDS011;16851;53.564;8.112;2023-07-13T07:11:19;16.13;;;3.92;;
30010;SDS011;16851;53.564;8.112;2023-07-13T07:16:26;14.98;;;4.20;;
30010;SDS011;16851;53.564;8.112;2023-07-13T07:21:32;13.93;;;3.28;;
30010;SDS011;16851;53.564;8.112;2023-07-13T07:26:39;13.63;;;3.33;;
30010;SDS011;16851;53.564;8.112;2023-07-13T07:31:44;10.93;;;3.00;;
30010;SDS011;16851;53.564;8.112;2023-07-13T07:36:49;11.98;;;2.63;;
30010;SDS011;16851;53.564;8.112;2023-07-13T07:41:54;9.02;;;2.97;;
30010;SDS011;16851;53.564;8.112;2023-07-13T07:46:58;13.43;;;2.75;;
30010;SDS011;16851;53.564;8.112;2023-07-13T07:52:07;13.82;;;2.88;;
30010;SDS011;16851;53.564;8.112;2023-07-13T07:57:16;12.43;;;2.78;;
30010;SDS011;16851;53.564;8.112;2023-07-13T08:02:31;7.95;;;2.65;;
30010;SDS011;16851;53.564;8.112;2023-07-13T08:07:38;9.73;;;2.65;;
30010;SDS011;16851;53.564;8.112;2023-07-13T08:12:43;10.40;;;2.22;;
30010;SDS011;16851;53.564;8.112;2023-07-13T08:18:07;8.73;;;2.10;;
30010;SDS011;16851;53.564;8.112;2023-07-13T08:23:12;10.70;;;2.00;;
30010;SDS011;16851;53.564;8.112;2023-07-13T08:28:20;8.18;;;2.03;;
30010;SDS011;16851;53.564;8.112;2023-07-13T08:33:22;9.98;;;2.08;;
30010;SDS011;16851;53.564;8.112;2023-07-13T08:38:25;7.60;;;1.80;;
30010;SDS011;16851;53.564;8.112;2023-07-13T08:43:34;6.97;;;1.70;;
30010;SDS011;16851;53.564;8.112;2023-07-13T08:48:47;13.80;;;2.92;;
30010;SDS011;16851;53.564;8.112;2023-07-13T08:53:52;9.25;;;1.77;;
30010;SDS011;16851;53.564;8.112;2023-07-13T08:58:57;9.45;;;1.65;;
30010;SDS011;16851;53.564;8.112;2023-07-13T09:04:06;4.68;;;1.40;;
30010;SDS011;16851;53.564;8.112;2023-07-13T09:09:24;4.15;;;1.65;;
30010;SDS011;16851;53.564;8.112;2023-07-13T09:14:53;5.60;;;1.52;;
30010;SDS011;16851;53.564;8.112;2023-07-13T09:20:41;6.20;;;1.40;;
30010;SDS011;16851;53.564;8.112;2023-07-13T09:30:45;6.90;;;1.58;;
30010;SDS011;16851;53.564;8.112;2023-07-13T09:35:55;5.57;;;1.35;;
30010;SDS011;16851;53.564;8.112;2023-07-13T09:46:21;6.85;;;1.55;;
30010;SDS011;16851;53.564;8.112;2023-07-13T09:51:27;6.40;;;1.35;;
30010;SDS011;16851;53.564;8.112;2023-07-13T09:56:29;6.35;;;1.95;;
30010;SDS011;16851;53.564;8.112;2023-07-13T10:01:35;5.60;;;1.38;;
30010;SDS011;16851;53.564;8.112;2023-07-13T10:06:42;5.28;;;1.80;;
30010;SDS011;16851;53.564;8.112;2023-07-13T10:11:48;7.65;;;1.80;;
30010;SDS011;16851;53.564;8.112;2023-07-13T10:16:56;7.18;;;1.77;;
30010;SDS011;16851;53.564;8.112;2023-07-13T10:22:05;5.68;;;1.40;;
30010;SDS011;16851;53.564;8.112;2023-07-13T10:27:29;4.72;;;1.50;;
30010;SDS011;16851;53.564;8.112;2023-07-13T10:32:34;4.20;;;1.70;;
30010;SDS011;16851;53.564;8.112;2023-07-13T10:37:45;4.28;;;1.67;;
30010;SDS011;16851;53.564;8.112;2023-07-13T10:42:51;5.43;;;1.55;;
30010;SDS011;16851;53.564;8.112;2023-07-13T10:47:56;7.40;;;2.25;;
30010;SDS011;16851;53.564;8.112;2023-07-13T10:53:02;7.80;;;1.88;;
30010;SDS011;16851;53.564;8.112;2023-07-13T10:58:20;8.27;;;1.95;;
30010;SDS011;16851;53.564;8.112;2023-07-13T11:03:30;6.68;;;2.63;;
30010;SDS011;16851;53.564;8.112;2023-07-13T11:08:39;5.28;;;2.13;;
30010;SDS011;16851;53.564;8.112;2023-07-13T11:14:00;11.15;;;2.53;;
30010;SDS011;16851;53.564;8.112;2023-07-13T11:24:19;5.85;;;2.40;;
30010;SDS011;16851;53.564;8.112;2023-07-13T11:34:36;13.23;;;4.20;;
30010;SDS011;16851;53.564;8.112;2023-07-13T11:39:43;3.88;;;2.25;;
30010;SDS011;16851;53.564;8.112;2023-07-13T11:44:49;6.97;;;2.30;;
30010;SDS011;16851;53.564;8.112;2023-07-13T11:50:17;5.90;;;1.90;;
30010;SDS011;16851;53.564;8.112;2023-07-13T11:55:23;6.28;;;2.40;;
30010;SDS011;16851;53.564;8.112;2023-07-13T12:00:30;6.43;;;3.22;;
30010;SDS011;16851;53.564;8.112;2023-07-13T12:05:38;6.43;;;3.25;;
30010;SDS011;16851;53.564;8.112;2023-07-13T12:11:01;6.78;;;3.95;;
30010;SDS011;16851;53.564;8.112;2023-07-13T12:16:16;6.30;;;4.05;;
30010;SDS011;16851;53.564;8.112;2023-07-13T12:21:18;9.63;;;5.47;;
30010;SDS011;16851;53.564;8.112;2023-07-13T12:26:20;6.53;;;3.80;;
30010;SDS011;16851;53.564;8.112;2023-07-13T12:31:35;5.95;;;3.72;;
30010;SDS011;16851;53.564;8.112;2023-07-13T12:36:41;4.53;;;2.45;;
30010;SDS011;16851;53.564;8.112;2023-07-13T12:42:09;3.20;;;1.70;;
30010;SDS011;16851;53.564;8.112;2023-07-13T12:47:26;4.28;;;1.70;;
30010;SDS011;16851;53.564;8.112;2023-07-13T12:52:33;4.35;;;1.13;;
30010;SDS011;16851;53.564;8.112;2023-07-13T12:57:41;4.03;;;1.25;;
30010;SDS011;16851;53.564;8.112;2023-07-13T13:02:49;3.80;;;1.33;;
30010;SDS011;16851;53.564;8.112;2023-07-13T13:08:05;3.60;;;1.15;;
30010;SDS011;16851;53.564;8.112;2023-07-13T13:13:08;2.67;;;1.20;;
30010;SDS011;16851;53.564;8.112;2023-07-13T13:18:28;3.72;;;1.20;;
30010;SDS011;16851;53.564;8.112;2023-07-13T13:23:31;4.03;;;1.23;;
30010;SDS011;16851;53.564;8.112;2023-07-13T13:28:33;3.10;;;1.40;;
30010;SDS011;16851;53.564;8.112;2023-07-13T13:33:35;2.47;;;0.88;;
30010;SDS011;16851;53.564;8.112;2023-07-13T13:38:39;4.80;;;1.25;;
30010;SDS011;16851;53.564;8.112;2023-07-13T13:43:41;3.70;;;1.10;;
30010;SDS011;16851;53.564;8.112;2023-07-13T13:48:44;2.88;;;1.00;;
30010;SDS011;16851;53.564;8.112;2023-07-13T13:53:48;3.75;;;1.27;;
30010;SDS011;16851;53.564;8.112;2023-07-13T13:58:51;3.33;;;1.00;;
30010;SDS011;16851;53.564;8.112;2023-07-13T14:03:53;5.70;;;1.38;;
30010;SDS011;16851;53.564;8.112;2023-07-13T14:08:57;4.95;;;1.30;;
30010;SDS011;16851;53.564;8.112;2023-07-13T14:13:59;6.15;;;1.33;;
30010;SDS011;16851;53.564;8.112;2023-07-13T14:19:07;5.70;;;1.25;;
30010;SDS011;16851;53.564;8.112;2023-07-13T14:24:11;6.82;;;1.23;;
30010;SDS011;16851;53.564;8.112;2023-07-13T14:29:15;4.55;;;1.52;;
30010;SDS011;16851;53.564;8.112;2023-07-13T14:34:21;4.75;;;1.20;;
30010;SDS011;16851;53.564;8.112;2023-07-13T14:39:28;4.30;;;1.30;;
30010;SDS011;16851;53.564;8.112;2023-07-13T14:44:35;3.20;;;1.30;;
30010;SDS011;16851;53.564;8.112;2023-07-13T14:49:40;5.32;;;1.45;;
30010;SDS011;16851;53.564;8.112;2023-07-13T14:54:44;7.68;;;1.48;;
30010;SDS011;16851;53.564;8.112;2023-07-13T14:59:48;6.05;;;1.40;;
30010;SDS011;16851;53.564;8.112;2023-07-13T15:04:53;5.00;;;1.75;;
30010;SDS011;16851;53.564;8.112;2023-07-13T15:09:57;10.05;;;1.73;;
30010;SDS011;16851;53.564;8.112;2023-07-13T15:15:02;8.20;;;2.00;;
30010;SDS011;16851;53.564;8.112;2023-07-13T15:20:19;3.90;;;1.30;;
30010;SDS011;16851;53.564;8.112;2023-07-13T15:25:22;4.72;;;1.25;;
30010;SDS011;16851;53.564;8.112;2023-07-13T15:30:29;6.57;;;1.90;;
30010;SDS011;16851;53.564;8.112;2023-07-13T15:35:37;10.57;;;1.88;;
30010;SDS011;16851;53.564;8.112;2023-07-13T15:40:39;7.05;;;1.15;;
30010;SDS011;16851;53.564;8.112;2023-07-13T15:45:42;5.55;;;1.40;;
30010;SDS011;16851;53.564;8.112;2023-07-13T15:50:46;6.95;;;1.65;;
30010;SDS011;16851;53.564;8.112;2023-07-13T15:55:55;6.93;;;1.63;;
30010;SDS011;16851;53.564;8.112;2023-07-13T16:01:00;6.82;;;1.45;;
30010;SDS011;16851;53.564;8.112;2023-07-13T16:06:02;5.53;;;1.92;;
30010;SDS011;16851;53.564;8.112;2023-07-13T16:11:04;11.77;;;1.70;;
30010;SDS011;16851;53.564;8.112;2023-07-13T16:16:09;5.32;;;1.27;;
30010;SDS011;16851;53.564;8.112;2023-07-13T16:21:13;7.82;;;1.20;;
30010;SDS011;16851;53.564;8.112;2023-07-13T16:31:24;7.10;;;1.60;;
30010;SDS011;16851;53.564;8.112;2023-07-13T16:36:29;6.65;;;1.50;;
30010;SDS011;16851;53.564;8.112;2023-07-13T16:41:32;10.18;;;1.60;;
30010;SDS011;16851;53.564;8.112;2023-07-13T16:46:40;7.60;;;1.40;;
30010;SDS011;16851;53.564;8.112;2023-07-13T16:51:43;6.10;;;1.40;;
30010;SDS011;16851;53.564;8.112;2023-07-13T16:56:47;5.25;;;0.95;;
30010;SDS011;16851;53.564;8.112;2023-07-13T17:01:51;9.32;;;1.50;;
30010;SDS011;16851;53.564;8.112;2023-07-13T17:06:56;7.47;;;1.70;;
30010;SDS011;16851;53.564;8.112;2023-07-13T17:11:58;6.25;;;1.15;;
30010;SDS011;16851;53.564;8.112;2023-07-13T17:17:01;6.15;;;1.30;;
30010;SDS011;16851;53.564;8.112;2023-07-13T17:22:05;4.65;;;1.38;;
30010;SDS011;16851;53.564;8.112;2023-07-13T17:27:11;7.25;;;1.35;;
30010;SDS011;16851;53.564;8.112;2023-07-13T17:32:16;3.35;;;1.10;;
30010;SDS011;16851;53.564;8.112;2023-07-13T17:37:20;6.70;;;1.23;;
30010;SDS011;16851;53.564;8.112;2023-07-13T17:42:26;7.38;;;1.05;;
30010;SDS011;16851;53.564;8.112;2023-07-13T17:47:34;4.70;;;1.20;;
30010;SDS011;16851;53.564;8.112;2023-07-13T17:52:36;7.47;;;1.40;;
30010;SDS011;16851;53.564;8.112;2023-07-13T17:57:43;6.75;;;1.20;;
30010;SDS011;16851;53.564;8.112;2023-07-13T18:02:50;6.35;;;1.30;;
30010;SDS011;16851;53.564;8.112;2023-07-13T18:07:54;9.88;;;1.75;;
30010;SDS011;16851;53.564;8.112;2023-07-13T18:12:56;4.75;;;1.15;;
30010;SDS011;16851;53.564;8.112;2023-07-13T18:17:59;5.18;;;0.95;;
30010;SDS011;16851;53.564;8.112;2023-07-13T18:23:01;5.70;;;1.30;;
30010;SDS011;16851;53.564;8.112;2023-07-13T18:28:08;7.82;;;1.33;;
30010;SDS011;16851;53.564;8.112;2023-07-13T18:33:53;3.78;;;1.13;;
30010;SDS011;16851;53.564;8.112;2023-07-13T18:38:36;5.20;;;1.40;;
30010;SDS011;16851;53.564;8.112;2023-07-13T18:43:38;6.38;;;1.80;;
30010;SDS011;16851;53.564;8.112;2023-07-13T18:48:48;8.73;;;1.38;;
30010;SDS011;16851;53.564;8.112;2023-07-13T18:53:50;7.40;;;1.70;;
30010;SDS011;16851;53.564;8.112;2023-07-13T18:58:52;4.03;;;1.20;;
30010;SDS011;16851;53.564;8.112;2023-07-13T19:03:56;7.88;;;1.35;;
30010;SDS011;16851;53.564;8.112;2023-07-13T19:09:04;6.05;;;1.38;;
30010;SDS011;16851;53.564;8.112;2023-07-13T19:14:17;5.85;;;1.38;;
30010;SDS011;16851;53.564;8.112;2023-07-13T19:19:26;7.32;;;1.63;;
30010;SDS011;16851;53.564;8.112;2023-07-13T19:24:28;7.72;;;1.65;;
30010;SDS011;16851;53.564;8.112;2023-07-13T19:29:30;7.93;;;1.73;;
30010;SDS011;16851;53.564;8.112;2023-07-13T19:34:32;7.18;;;1.35;;
30010;SDS011;16851;53.564;8.112;2023-07-13T19:39:39;5.35;;;1.25;;
30010;SDS011;16851;53.564;8.112;2023-07-13T19:44:44;5.07;;;1.90;;
30010;SDS011;16851;53.564;8.112;2023-07-13T19:49:46;6.07;;;1.63;;
30010;SDS011;16851;53.564;8.112;2023-07-13T19:54:52;4.05;;;1.70;;
30010;SDS011;16851;53.564;8.112;2023-07-13T19:59:58;3.33;;;1.13;;
30010;SDS011;16851;53.564;8.112;2023-07-13T20:05:01;5.43;;;1.70;;
30010;SDS011;16851;53.564;8.112;2023-07-13T20:10:15;5.63;;;1.30;;
30010;SDS011;16851;53.564;8.112;2023-07-13T20:15:30;3.47;;;1.20;;
30010;SDS011;16851;53.564;8.112;2023-07-13T20:20:38;6.50;;;1.42;;
30010;SDS011;16851;53.564;8.112;2023-07-13T20:25:48;4.97;;;1.30;;
30010;SDS011;16851;53.564;8.112;2023-07-13T20:30:52;2.33;;;1.00;;
30010;SDS011;16851;53.564;8.112;2023-07-13T20:35:58;3.53;;;1.10;;
30010;SDS011;16851;53.564;8.112;2023-07-13T20:41:03;5.53;;;1.67;;
30010;SDS011;16851;53.564;8.112;2023-07-13T20:46:08;6.00;;;1.27;;
30010;SDS011;16851;53.564;8.112;2023-07-13T20:51:14;4.72;;;1.70;;
30010;SDS011;16851;53.564;8.112;2023-07-13T20:56:17;2.05;;;1.20;;
30010;SDS011;16851;53.564;8.112;2023-07-13T21:06:27;6.30;;;1.30;;
30010;SDS011;16851;53.564;8.112;2023-07-13T21:11:30;2.97;;;1.30;;
30010;SDS011;16851;53.564;8.112;2023-07-13T21:16:32;7.47;;;1.92;;
30010;SDS011;16851;53.564;8.112;2023-07-13T21:21:36;8.63;;;2.08;;
30010;SDS011;16851;53.564;8.112;2023-07-13T21:26:38;5.32;;;1.75;;
30010;SDS011;16851;53.564;8.112;2023-07-13T21:31:42;5.05;;;1.50;;
30010;SDS011;16851;53.564;8.112;2023-07-13T21:36:44;3.00;;;1.50;;
30010;SDS011;16851;53.564;8.112;2023-07-13T21:41:46;7.13;;;1.95;;
30010;SDS011;16851;53.564;8.112;2023-07-13T21:46:48;4.55;;;1.40;;
30010;SDS011;16851;53.564;8.112;2023-07-13T21:51:50;5.15;;;1.85;;
30010;SDS011;16851;53.564;8.112;2023-07-13T21:56:52;6.80;;;2.22;;
30010;SDS011;16851;53.564;8.112;2023-07-13T22:02:00;6.03;;;1.70;;
30010;SDS011;16851;53.564;8.112;2023-07-13T22:07:05;6.18;;;2.00;;
30010;SDS011;16851;53.564;8.112;2023-07-13T22:12:07;6.88;;;1.95;;
30010;SDS011;16851;53.564;8.112;2023-07-13T22:17:10;8.98;;;2.30;;
30010;SDS011;16851;53.564;8.112;2023-07-13T22:22:20;7.53;;;1.80;;
30010;SDS011;16851;53.564;8.112;2023-07-13T22:27:25;3.55;;;1.58;;
30010;SDS011;16851;53.564;8.112;2023-07-13T22:32:33;4.93;;;1.80;;
30010;SDS011;16851;53.564;8.112;2023-07-13T22:37:37;6.88;;;2.08;;
30010;SDS011;16851;53.564;8.112;2023-07-13T22:42:42;7.55;;;2.33;;
30010;SDS011;16851;53.564;8.112;2023-07-13T22:47:46;4.55;;;2.25;;
30010;SDS011;16851;53.564;8.112;2023-07-13T22:52:54;7.88;;;2.20;;
30010;SDS011;16851;53.564;8.112;2023-07-13T22:57:58;4.40;;;2.05;;
30010;SDS011;16851;53.564;8.112;2023-07-13T23:03:00;4.78;;;2.17;;
30010;SDS011;16851;53.564;8.112;2023-07-13T23:08:02;5.85;;;2.22;;
30010;SDS011;16851;53.564;8.112;2023-07-13T23:13:11;13.52;;;2.60;;
30010;SDS011;16851;53.564;8.112;2023-07-13T23:18:14;7.35;;;2.38;;
30010;SDS011;16851;53.564;8.112;2023-07-13T23:23:17;4.93;;;2.05;;
30010;SDS011;16851;53.564;8.112;2023-07-13T23:28:19;5.15;;;2.17;;
30010;SDS011;16851;53.564;8.112;2023-07-13T23:33:24;6.32;;;2.60;;
30010;SDS011;16851;53.564;8.112;2023-07-13T23:38:34;6.25;;;2.60;;
30010;SDS011;16851;53.564;8.112;2023-07-13T23:43:38;6.20;;;2.38;;
30010;SDS011;16851;53.564;8.112;2023-07-13T23:48:40;4.05;;;2.33;;
30010;SDS011;16851;53.564;8.112;2023-07-13T23:53:42;7.15;;;2.55;;
30010;SDS011;16851;53.564;8.112;2023-07-13T23:58:46;2.90;;;1.90;;
